Time;durP1;ratioP1;P1;durP2;ratioP2;P2;SDS_P1;SDS_P2;PMS_P1;PMS_P2;Temp;Humidity;BMP_temperature;BMP_pressure;BME280_temperature;BME280_humidity;BME280_pressure;Samples;Min_cycle;Max_cycle;Signal;HPM_P1;HPM_P2
2024/01/21 00:01:40;;;;;;;16.55;14.80;;;-0.40;99.90;;;;;;4986482;28;20046;-33
2024/01/21 00:04:07;;;;;;;13.82;12.43;;;-0.40;99.90;;;;;;4988048;28;20129;-33
2024/01/21 00:06:33;;;;;;;12.68;8.85;;;-0.40;99.90;;;;;;4984196;28;20492;-32
2024/01/21 00:08:59;;;;;;;15.00;13.27;;;-0.40;99.90;;;;;;4981772;28;20125;-33
2024/01/21 00:11:24;;;;;;;13.73;11.85;;;-0.40;99.90;;;;;;4985261;28;20096;-33
2024/01/21 00:13:50;;;;;;;12.15;9.80;;;-0.40;99.90;;;;;;4984273;28;20047;-33
2024/01/21 00:16:16;;;;;;;16.15;14.52;;;-0.40;99.90;;;;;;4981875;28;20038;-33
2024/01/21 00:18:41;;;;;;;15.38;13.80;;;-0.30;99.90;;;;;;4984841;28;20511;-33
2024/01/21 00:26:24;;;;;;;17.48;15.85;;;-0.30;99.90;;;;;;4987472;23;20077;-41
2024/01/21 00:28:49;;;;;;;16.10;14.50;;;-0.30;99.90;;;;;;4969171;28;20396;-32
2024/01/21 00:31:15;;;;;;;14.05;12.57;;;-0.30;99.90;;;;;;4969390;28;20047;-32
2024/01/21 00:33:41;;;;;;;17.02;15.43;;;-0.30;99.90;;;;;;4968345;28;20043;-32
2024/01/21 00:36:08;;;;;;;14.88;13.38;;;-0.30;99.90;;;;;;4971337;28;20043;-32
2024/01/21 00:38:33;;;;;;;17.80;16.20;;;-0.20;99.90;;;;;;4970523;28;20109;-32
2024/01/21 00:40:59;;;;;;;14.10;12.68;;;-0.20;99.90;;;;;;4970362;28;20038;-32
2024/01/21 00:43:25;;;;;;;13.57;12.18;;;-0.20;99.90;;;;;;4987369;28;20506;-32
2024/01/21 00:45:51;;;;;;;15.68;14.07;;;-0.20;99.90;;;;;;4971006;28;20057;-32
2024/01/21 00:48:17;;;;;;;16.80;15.25;;;-0.20;99.90;;;;;;4970343;28;20476;-32
2024/01/21 00:50:43;;;;;;;12.95;10.82;;;-0.20;99.90;;;;;;4970438;28;20109;-32
2024/01/21 00:53:08;;;;;;;14.77;11.15;;;-0.20;99.90;;;;;;4971406;28;20058;-32
2024/01/21 00:55:34;;;;;;;12.93;11.63;;;-0.20;99.90;;;;;;4969641;28;20045;-32
2024/01/21 00:58:00;;;;;;;17.20;15.55;;;-0.20;99.90;;;;;;4966956;28;20038;-33
2024/01/21 01:00:27;;;;;;;13.80;12.27;;;-0.20;99.90;;;;;;4967719;28;20039;-31
2024/01/21 01:02:52;;;;;;;14.68;13.18;;;-0.10;99.90;;;;;;4982226;28;20543;-32
2024/01/21 01:05:18;;;;;;;15.88;14.43;;;-0.10;99.90;;;;;;4970168;28;20168;-32
2024/01/21 01:07:44;;;;;;;11.15;9.95;;;-0.10;99.90;;;;;;4970468;28;20463;-32
2024/01/21 01:10:10;;;;;;;16.52;12.23;;;-0.10;99.90;;;;;;4967896;28;20149;-34
2024/01/21 01:12:36;;;;;;;13.93;12.52;;;0.00;99.90;;;;;;4968440;28;20125;-34
2024/01/21 01:15:02;;;;;;;15.85;14.45;;;0.00;99.90;;;;;;4967288;28;20035;-32
2024/01/21 01:17:27;;;;;;;13.07;11.73;;;0.00;99.90;;;;;;4964438;28;20045;-32
2024/01/21 01:19:53;;;;;;;10.93;9.52;;;0.00;99.90;;;;;;4964366;28;20503;-32
2024/01/21 01:22:19;;;;;;;11.95;10.55;;;0.00;99.90;;;;;;4966585;28;20046;-31
2024/01/21 01:24:44;;;;;;;13.20;11.90;;;0.00;99.90;;;;;;4972104;28;20137;-31
2024/01/21 01:27:10;;;;;;;13.95;12.65;;;0.10;99.90;;;;;;4986472;28;20061;-31
2024/01/21 01:29:36;;;;;;;12.30;9.60;;;0.10;99.90;;;;;;4991560;28;20037;-32
2024/01/21 01:32:02;;;;;;;10.70;9.60;;;0.10;99.90;;;;;;4993597;28;20044;-31
2024/01/21 01:34:27;;;;;;;15.85;14.50;;;0.10;99.90;;;;;;5008537;28;20125;-31
2024/01/21 01:36:53;;;;;;;11.52;8.82;;;0.10;99.90;;;;;;4990675;28;20129;-32
2024/01/21 01:39:19;;;;;;;12.25;9.50;;;0.10;99.90;;;;;;5009200;28;20034;-38
2024/01/21 01:41:44;;;;;;;11.38;9.55;;;0.10;99.90;;;;;;4988906;28;20155;-34
2024/01/21 01:44:10;;;;;;;10.00;7.60;;;0.10;99.90;;;;;;5009499;28;20092;-38
2024/01/21 01:46:36;;;;;;;14.77;13.32;;;0.10;99.90;;;;;;5013783;28;20042;-38
2024/01/21 01:49:02;;;;;;;12.25;11.02;;;0.10;99.90;;;;;;5012771;28;20446;-33
2024/01/21 01:51:28;;;;;;;13.20;12.00;;;0.10;99.90;;;;;;5012699;28;20034;-34
2024/01/21 01:53:53;;;;;;;13.02;11.75;;;0.10;99.90;;;;;;4988907;28;20116;-35
2024/01/21 01:56:19;;;;;;;13.93;12.65;;;0.10;99.90;;;;;;4991282;28;20048;-37
2024/01/21 01:58:47;;;;;;;12.95;11.80;;;0.10;99.90;;;;;;5009627;28;20041;-38
2024/01/21 02:01:13;;;;;;;15.07;13.75;;;0.10;99.90;;;;;;5010957;28;20077;-33
2024/01/21 02:03:39;;;;;;;11.45;10.35;;;0.10;99.90;;;;;;4991295;28;20644;-38
2024/01/21 02:06:06;;;;;;;13.65;12.38;;;0.20;99.90;;;;;;5011700;28;20048;-35
2024/01/21 02:08:32;;;;;;;12.25;10.98;;;0.20;99.90;;;;;;5010029;28;20484;-40
2024/01/21 02:10:58;;;;;;;14.77;13.55;;;0.20;99.90;;;;;;5008214;28;20026;-38
2024/01/21 02:13:23;;;;;;;15.05;13.82;;;0.20;99.90;;;;;;5009647;28;20038;-37
2024/01/21 02:15:49;;;;;;;14.15;12.85;;;0.20;99.90;;;;;;5012521;28;20045;-39
2024/01/21 02:18:15;;;;;;;17.90;16.50;;;0.20;99.90;;;;;;5010666;28;20137;-34
2024/01/21 02:20:41;;;;;;;18.65;17.17;;;0.30;99.90;;;;;;5005999;28;20053;-40
2024/01/21 02:23:10;;;;;;;19.35;17.98;;;0.30;99.90;;;;;;5008850;28;20041;-41
2024/01/21 02:25:35;;;;;;;20.60;19.10;;;0.30;99.90;;;;;;5014654;28;20443;-39
2024/01/21 02:28:01;;;;;;;19.27;17.85;;;0.40;99.90;;;;;;5007116;28;20057;-39
2024/01/21 02:30:27;;;;;;;20.30;18.85;;;0.40;99.90;;;;;;5005118;28;20045;-35
2024/01/21 02:32:53;;;;;;;17.75;16.45;;;0.40;99.90;;;;;;5008646;28;20069;-31
2024/01/21 02:35:18;;;;;;;19.58;18.27;;;0.40;99.90;;;;;;5010953;28;20183;-32
2024/01/21 02:37:44;;;;;;;19.88;18.48;;;0.40;99.90;;;;;;5010435;28;20042;-31
2024/01/21 02:40:10;;;;;;;14.70;13.60;;;0.40;99.90;;;;;;5008190;28;20391;-32
2024/01/21 02:42:36;;;;;;;14.85;13.68;;;0.40;99.90;;;;;;5007427;28;20034;-33
2024/01/21 02:45:02;;;;;;;15.48;14.35;;;0.40;99.90;;;;;;5012391;28;20509;-33
2024/01/21 02:47:27;;;;;;;13.57;12.48;;;0.40;99.90;;;;;;5011101;28;20065;-36
2024/01/21 02:49:53;;;;;;;14.60;13.48;;;0.40;99.90;;;;;;5012462;28;20042;-33
2024/01/21 02:52:19;;;;;;;15.15;14.00;;;0.40;99.90;;;;;;5007721;28;20034;-33
2024/01/21 02:54:44;;;;;;;17.02;15.82;;;0.40;99.90;;;;;;5008797;28;20030;-36
2024/01/21 02:57:10;;;;;;;18.05;16.83;;;0.40;99.90;;;;;;5011427;28;20510;-37
2024/01/21 02:59:36;;;;;;;13.55;12.50;;;0.40;99.90;;;;;;5006685;28;20064;-40
2024/01/21 03:02:01;;;;;;;12.35;11.48;;;0.50;99.90;;;;;;5007423;28;20057;-36
2024/01/21 03:04:27;;;;;;;11.68;10.40;;;0.50;99.90;;;;;;5009524;28;20187;-38
2024/01/21 03:06:53;;;;;;;11.15;10.23;;;0.50;99.90;;;;;;5009499;28;20099;-41
2024/01/21 03:09:18;;;;;;;11.70;10.70;;;0.50;99.90;;;;;;5009150;28;20042;-37
2024/01/21 03:11:44;;;;;;;12.27;11.27;;;0.50;99.90;;;;;;5009106;28;20045;-39
2024/01/21 03:14:10;;;;;;;13.05;12.05;;;0.50;99.90;;;;;;5011011;28;20048;-38
2024/01/21 03:16:35;;;;;;;9.63;8.63;;;0.50;99.90;;;;;;5010286;28;20441;-38
2024/01/21 03:19:01;;;;;;;12.60;11.60;;;0.50;99.90;;;;;;5007745;28;20154;-40
2024/01/21 03:21:27;;;;;;;10.27;9.48;;;0.50;99.90;;;;;;5007916;28;20100;-39
2024/01/21 03:23:52;;;;;;;11.43;10.43;;;0.50;99.90;;;;;;5006570;28;20045;-41
2024/01/21 03:26:18;;;;;;;10.05;8.90;;;0.50;99.90;;;;;;5004770;28;20058;-40
2024/01/21 03:28:44;;;;;;;9.60;8.80;;;0.40;99.90;;;;;;5009541;28;20401;-39
2024/01/21 03:31:09;;;;;;;9.82;9.02;;;0.40;99.90;;;;;;5011395;28;20049;-39
2024/01/21 03:33:35;;;;;;;9.57;8.77;;;0.40;99.90;;;;;;5006377;28;20072;-38
2024/01/21 03:36:01;;;;;;;8.38;7.57;;;0.40;99.90;;;;;;5004900;28;20044;-39
2024/01/21 03:38:27;;;;;;;9.20;7.95;;;0.40;99.90;;;;;;5003715;28;20466;-40
2024/01/21 03:40:53;;;;;;;9.52;8.60;;;0.50;99.90;;;;;;5006212;28;20042;-39
2024/01/21 03:43:18;;;;;;;8.80;7.95;;;0.50;99.90;;;;;;4991713;28;20044;-39
2024/01/21 03:45:44;;;;;;;10.45;9.60;;;0.40;99.90;;;;;;5005589;28;20038;-38
2024/01/21 03:48:11;;;;;;;12.25;11.25;;;0.40;99.90;;;;;;5008745;28;20399;-41
2024/01/21 03:50:36;;;;;;;9.30;8.48;;;0.40;99.90;;;;;;5008939;28;20091;-41
2024/01/21 03:53:02;;;;;;;8.80;8.10;;;0.40;99.90;;;;;;5008932;28;20454;-40
2024/01/21 03:55:28;;;;;;;9.07;8.18;;;0.40;99.90;;;;;;5007827;28;20030;-38
2024/01/21 03:57:54;;;;;;;7.88;7.18;;;0.40;99.90;;;;;;5007579;28;20064;-40
2024/01/21 04:00:19;;;;;;;8.50;7.78;;;0.30;99.90;;;;;;5008463;28;20042;-38
2024/01/21 04:02:45;;;;;;;9.40;8.60;;;0.30;99.90;;;;;;5003581;28;20129;-41
2024/01/21 04:05:11;;;;;;;12.07;11.18;;;0.30;99.90;;;;;;5008724;28;20038;-41
2024/01/21 04:07:36;;;;;;;10.68;9.88;;;0.20;99.90;;;;;;5005748;28;20345;-41
2024/01/21 04:10:03;;;;;;;13.63;12.60;;;0.20;99.90;;;;;;5004586;28;20092;-42
2024/01/21 04:12:29;;;;;;;13.20;12.38;;;0.20;99.90;;;;;;5005959;28;20065;-42
2024/01/21 04:14:54;;;;;;;14.45;13.55;;;0.20;99.90;;;;;;5006438;28;20038;-41
2024/01/21 04:17:23;;;;;;;10.45;9.40;;;0.20;99.90;;;;;;5005951;28;20417;-42
2024/01/21 04:19:48;;;;;;;13.93;12.95;;;0.20;99.90;;;;;;4988535;28;20128;-41
2024/01/21 04:22:14;;;;;;;12.07;11.20;;;0.20;99.90;;;;;;5004127;28;20125;-40
2024/01/21 04:24:40;;;;;;;16.55;15.30;;;0.20;99.90;;;;;;5007893;28;20987;-39
2024/01/21 04:27:06;;;;;;;13.77;12.77;;;0.20;99.90;;;;;;5006272;28;20042;-41
2024/01/21 04:29:33;;;;;;;12.55;11.55;;;0.20;99.90;;;;;;5006111;28;20125;-40
2024/01/21 04:31:58;;;;;;;13.18;12.18;;;0.20;99.90;;;;;;5005928;28;20109;-35
2024/01/21 04:34:24;;;;;;;10.60;9.80;;;0.20;99.90;;;;;;5004626;28;20469;-39
2024/01/21 04:36:50;;;;;;;15.45;14.35;;;0.20;99.90;;;;;;5006720;28;20038;-41
2024/01/21 04:39:19;;;;;;;12.15;11.27;;;0.20;99.90;;;;;;5005842;28;20069;-41
2024/01/21 04:41:45;;;;;;;12.20;11.32;;;0.20;99.90;;;;;;5010487;28;20040;-39
2024/01/21 04:44:10;;;;;;;15.05;13.82;;;0.20;99.90;;;;;;5006233;28;20507;-41
2024/01/21 04:46:36;;;;;;;15.70;14.73;;;0.20;99.90;;;;;;4990397;28;20445;-39
2024/01/21 04:49:02;;;;;;;15.50;14.50;;;0.20;99.90;;;;;;5006121;28;20053;-39
2024/01/21 04:51:28;;;;;;;14.43;13.43;;;0.20;99.90;;;;;;5005941;28;20124;-40
2024/01/21 04:53:53;;;;;;;16.15;15.02;;;0.20;99.90;;;;;;5004459;28;20034;-42
2024/01/21 04:56:19;;;;;;;18.08;17.00;;;0.20;99.90;;;;;;5003034;28;20042;-40
2024/01/21 04:58:45;;;;;;;15.25;14.27;;;0.20;99.90;;;;;;5005891;28;20188;-40
2024/01/21 05:01:12;;;;;;;14.30;13.35;;;0.20;99.90;;;;;;5008701;28;20506;-37
2024/01/21 05:03:38;;;;;;;14.23;13.07;;;0.20;99.90;;;;;;5003410;28;20053;-40
2024/01/21 05:06:06;;;;;;;17.42;16.20;;;0.10;99.90;;;;;;5003976;28;20049;-41
2024/01/21 05:08:32;;;;;;;16.02;14.93;;;0.10;99.90;;;;;;5004552;28;20044;-42
2024/01/21 05:10:58;;;;;;;16.42;15.32;;;0.10;99.90;;;;;;5006827;28;20038;-42
2024/01/21 05:13:23;;;;;;;15.52;14.52;;;0.10;99.90;;;;;;5007974;28;20092;-42
2024/01/21 05:15:49;;;;;;;20.65;19.40;;;0.10;99.90;;;;;;4992447;28;20037;-43
2024/01/21 05:18:15;;;;;;;19.70;18.35;;;0.20;99.90;;;;;;5007449;28;20407;-41
2024/01/21 05:20:40;;;;;;;17.98;16.92;;;0.20;99.90;;;;;;5003009;28;20132;-41
2024/01/21 05:23:06;;;;;;;17.05;15.98;;;0.20;99.90;;;;;;5000318;28;20064;-42
2024/01/21 05:25:32;;;;;;;22.40;21.08;;;0.20;99.90;;;;;;5004017;28;20073;-40
2024/01/21 05:27:58;;;;;;;18.02;16.58;;;0.20;99.90;;;;;;5000002;28;20049;-43
2024/01/21 05:30:23;;;;;;;17.05;15.98;;;0.30;99.90;;;;;;5004119;28;20133;-43
2024/01/21 05:32:50;;;;;;;17.88;16.65;;;0.30;99.90;;;;;;5005310;28;20100;-42
2024/01/21 05:35:18;;;;;;;15.38;14.45;;;0.30;99.90;;;;;;5004439;28;20108;-43
2024/01/21 05:37:44;;;;;;;14.57;13.50;;;0.30;99.90;;;;;;5008914;28;20099;-41
2024/01/21 05:40:10;;;;;;;18.50;17.30;;;0.40;99.90;;;;;;5004846;28;20439;-40
2024/01/21 05:42:36;;;;;;;16.15;15.05;;;0.40;99.90;;;;;;5003441;28;20408;-41
2024/01/21 05:45:03;;;;;;;19.77;18.67;;;0.40;99.90;;;;;;5005511;28;20038;-42
2024/01/21 05:47:28;;;;;;;17.23;16.13;;;0.50;99.90;;;;;;5003796;28;20034;-42
2024/01/21 05:49:54;;;;;;;16.40;15.07;;;0.50;99.90;;;;;;5003704;28;20069;-41
2024/01/21 05:52:20;;;;;;;15.85;14.82;;;0.50;99.90;;;;;;5005857;28;20507;-40
2024/01/21 05:54:45;;;;;;;19.58;18.35;;;0.50;99.90;;;;;;5002434;28;20054;-40
2024/01/21 05:57:11;;;;;;;15.93;14.82;;;0.50;99.90;;;;;;5005424;28;20132;-40
2024/01/21 05:59:37;;;;;;;15.88;14.82;;;0.50;99.90;;;;;;5008194;28;20040;-40
2024/01/21 06:02:10;;;;;;;13.13;12.23;;;0.50;99.90;;;;;;5003282;28;20594;-39
2024/01/21 06:04:40;;;;;;;14.00;12.50;;;0.50;99.90;;;;;;5005484;28;20053;-40
2024/01/21 06:07:07;;;;;;;12.82;11.90;;;0.50;99.90;;;;;;5004069;28;20486;-40
2024/01/21 06:09:32;;;;;;;17.23;16.10;;;0.50;99.90;;;;;;5005206;28;20045;-40
2024/01/21 06:11:58;;;;;;;13.75;12.70;;;0.50;99.90;;;;;;5006624;28;20126;-40
2024/01/21 06:14:24;;;;;;;10.32;9.38;;;0.50;99.90;;;;;;5004233;28;20064;-40
2024/01/21 06:16:52;;;;;;;16.30;15.20;;;0.50;99.90;;;;;;5008906;28;20128;-39
2024/01/21 06:19:18;;;;;;;13.95;12.82;;;0.50;99.90;;;;;;5008076;28;20129;-37
2024/01/21 06:21:44;;;;;;;10.60;9.70;;;0.50;99.90;;;;;;5007885;28;20113;-40
2024/01/21 06:24:13;;;;;;;11.02;10.23;;;0.60;99.90;;;;;;5008142;28;20040;-40
2024/01/21 06:26:40;;;;;;;11.75;10.75;;;0.60;99.90;;;;;;5006706;28;20498;-40
2024/01/21 06:29:07;;;;;;;10.45;9.63;;;0.60;99.90;;;;;;5008192;28;20072;-40
2024/01/21 06:31:33;;;;;;;14.20;13.18;;;0.60;99.90;;;;;;5007719;28;20045;-38
2024/01/21 06:33:58;;;;;;;12.23;11.27;;;0.60;99.90;;;;;;5004776;28;20033;-39
2024/01/21 06:36:24;;;;;;;11.85;10.88;;;0.70;99.90;;;;;;5007906;28;20052;-40
2024/01/21 06:38:50;;;;;;;12.52;11.63;;;0.70;99.90;;;;;;5007476;28;20156;-39
2024/01/21 06:41:15;;;;;;;9.82;8.93;;;0.70;99.90;;;;;;5009037;28;20061;-32
2024/01/21 06:43:41;;;;;;;9.85;8.95;;;0.70;99.90;;;;;;5009322;28;20129;-31
2024/01/21 06:46:08;;;;;;;8.48;7.68;;;0.70;99.90;;;;;;5006283;28;20494;-32
2024/01/21 06:48:34;;;;;;;9.25;8.43;;;0.70;99.90;;;;;;5009359;28;20460;-33
2024/01/21 06:51:00;;;;;;;8.60;7.80;;;0.70;99.90;;;;;;5005060;28;20040;-32
2024/01/21 06:53:26;;;;;;;12.07;10.90;;;0.80;99.90;;;;;;5007999;28;20129;-33
2024/01/21 06:55:52;;;;;;;9.30;8.50;;;0.80;99.90;;;;;;5008267;28;20044;-33
2024/01/21 06:58:18;;;;;;;7.35;6.57;;;0.80;99.90;;;;;;5009157;28;20075;-32
2024/01/21 07:00:50;;;;;;;9.68;8.88;;;0.90;99.90;;;;;;5003759;28;20132;-33
2024/01/21 07:03:16;;;;;;;9.93;9.13;;;0.90;99.90;;;;;;5007888;28;20591;-32
2024/01/21 07:05:42;;;;;;;7.05;6.32;;;0.90;99.90;;;;;;4989385;28;20045;-33
2024/01/21 07:08:07;;;;;;;9.60;8.75;;;0.90;99.90;;;;;;5008409;28;20034;-32
2024/01/21 07:10:33;;;;;;;8.70;7.90;;;0.90;99.90;;;;;;5009128;28;20407;-32
2024/01/21 07:12:59;;;;;;;9.10;7.13;;;0.90;99.90;;;;;;5007754;28;20034;-33
2024/01/21 07:15:25;;;;;;;8.18;7.30;;;0.90;99.90;;;;;;5007838;28;20461;-33
2024/01/21 07:17:51;;;;;;;7.07;5.90;;;1.00;99.90;;;;;;5007821;28;20045;-32
2024/01/21 07:20:16;;;;;;;6.05;4.90;;;1.00;99.90;;;;;;5008605;28;20095;-35
2024/01/21 07:22:42;;;;;;;5.60;5.00;;;1.00;99.90;;;;;;5007375;28;20112;-32
2024/01/21 07:25:08;;;;;;;9.30;7.05;;;1.00;99.90;;;;;;5007975;28;20132;-33
2024/01/21 07:27:34;;;;;;;6.95;6.35;;;1.10;99.90;;;;;;5006322;28;20080;-33
2024/01/21 07:30:00;;;;;;;6.93;5.97;;;1.10;99.90;;;;;;5008031;28;20045;-33
2024/01/21 07:32:26;;;;;;;6.97;6.30;;;1.20;99.90;;;;;;5006534;28;20037;-33
2024/01/21 07:34:51;;;;;;;8.25;6.15;;;1.20;99.90;;;;;;5006982;28;20087;-43
2024/01/21 07:37:17;;;;;;;6.22;4.85;;;1.30;99.90;;;;;;5006510;28;20391;-42
2024/01/21 07:39:42;;;;;;;8.23;7.50;;;1.30;99.90;;;;;;5005241;28;20042;-41
2024/01/21 07:42:08;;;;;;;6.70;5.72;;;1.30;99.90;;;;;;5006268;28;20045;-38
2024/01/21 07:44:34;;;;;;;6.85;5.38;;;1.30;99.90;;;;;;5005915;28;20072;-42
2024/01/21 07:46:59;;;;;;;7.15;5.22;;;1.40;99.90;;;;;;5006582;28;20403;-40
2024/01/21 07:49:25;;;;;;;6.57;5.45;;;1.40;99.90;;;;;;5004553;28;20042;-40
2024/01/21 07:51:51;;;;;;;8.48;5.88;;;1.40;99.90;;;;;;5006433;28;20029;-40
2024/01/21 07:54:17;;;;;;;7.88;7.13;;;1.40;99.90;;;;;;5005630;28;20037;-41
2024/01/21 07:56:42;;;;;;;8.77;5.30;;;1.40;99.90;;;;;;5007728;28;20041;-40
2024/01/21 07:59:08;;;;;;;6.85;5.57;;;1.50;99.90;;;;;;5007222;28;20041;-39
2024/01/21 08:01:34;;;;;;;6.97;5.90;;;1.50;99.90;;;;;;4990245;28;20490;-41
2024/01/21 08:03:59;;;;;;;6.10;4.63;;;1.50;99.90;;;;;;5006264;28;20046;-36
2024/01/21 08:06:25;;;;;;;9.75;5.28;;;1.50;99.90;;;;;;5007905;28;20042;-40
2024/01/21 08:08:51;;;;;;;6.22;4.53;;;1.50;99.90;;;;;;5006552;28;20116;-39
2024/01/21 08:11:17;;;;;;;5.97;4.85;;;1.60;99.90;;;;;;5006716;28;20034;-40
2024/01/21 08:13:44;;;;;;;5.88;4.53;;;1.60;99.90;;;;;;5006508;28;20073;-41
2024/01/21 08:16:10;;;;;;;6.63;4.35;;;1.60;99.90;;;;;;5006260;28;20133;-39
2024/01/21 08:18:36;;;;;;;7.20;4.88;;;1.70;99.90;;;;;;5005567;28;20606;-40
2024/01/21 08:21:02;;;;;;;6.70;4.60;;;1.70;99.90;;;;;;5006553;28;20049;-38
2024/01/21 08:23:28;;;;;;;10.70;5.22;;;1.80;99.90;;;;;;5003967;28;20048;-40
2024/01/21 08:25:53;;;;;;;9.82;5.82;;;1.80;99.90;;;;;;5005357;28;20057;-39
2024/01/21 08:28:19;;;;;;;8.68;5.75;;;1.90;99.90;;;;;;5002966;28;20049;-39
2024/01/21 08:30:45;;;;;;;8.23;6.45;;;1.90;99.90;;;;;;5005790;28;20625;-38
2024/01/21 08:33:10;;;;;;;9.02;6.95;;;2.00;99.90;;;;;;5001657;28;20046;-37
2024/01/21 08:35:38;;;;;;;6.70;6.10;;;2.00;99.90;;;;;;5005906;28;20049;-40
2024/01/21 08:38:03;;;;;;;6.88;6.10;;;2.00;99.90;;;;;;4999977;28;20045;-41
2024/01/21 08:40:29;;;;;;;9.23;6.63;;;2.00;99.90;;;;;;4999060;28;20049;-41
2024/01/21 08:42:55;;;;;;;7.78;7.00;;;2.10;99.90;;;;;;5001691;28;20490;-37
2024/01/21 08:45:20;;;;;;;7.57;6.57;;;2.10;99.90;;;;;;5003012;28;20037;-39
2024/01/21 08:47:46;;;;;;;10.73;7.03;;;2.10;99.90;;;;;;5005491;28;20344;-40
2024/01/21 08:50:12;;;;;;;7.90;6.93;;;2.20;99.90;;;;;;5005767;28;20042;-41
2024/01/21 08:52:37;;;;;;;8.93;8.10;;;2.20;99.90;;;;;;5004808;28;20461;-32
2024/01/21 08:55:04;;;;;;;9.35;7.18;;;2.30;99.90;;;;;;5004876;28;20046;-33
2024/01/21 08:57:30;;;;;;;8.45;7.75;;;2.30;99.90;;;;;;4999454;28;20096;-32
2024/01/21 08:59:55;;;;;;;10.13;9.23;;;2.40;99.90;;;;;;5002324;28;20054;-32
2024/01/21 09:02:21;;;;;;;9.85;8.93;;;2.40;99.90;;;;;;4999500;28;20549;-32
2024/01/21 09:04:47;;;;;;;9.68;8.77;;;2.40;99.90;;;;;;5005609;28;20070;-33
2024/01/21 09:07:12;;;;;;;12.18;10.35;;;2.50;99.90;;;;;;5002625;28;20491;-33
2024/01/21 09:09:38;;;;;;;12.45;11.25;;;2.50;99.90;;;;;;4986045;28;20054;-32
2024/01/21 09:12:04;;;;;;;8.98;8.18;;;2.50;99.90;;;;;;5005559;28;20050;-34
2024/01/21 09:14:30;;;;;;;10.40;9.27;;;2.50;99.90;;;;;;5004806;28;20144;-32
2024/01/21 09:16:56;;;;;;;10.82;9.93;;;2.50;99.90;;;;;;4987488;28;20565;-32
2024/01/21 09:19:22;;;;;;;11.60;10.57;;;2.60;99.90;;;;;;5005212;28;20170;-32
2024/01/21 09:21:48;;;;;;;11.38;10.43;;;2.60;99.90;;;;;;5006063;28;20111;-32
2024/01/21 09:24:14;;;;;;;11.25;10.38;;;2.70;99.90;;;;;;5002923;28;20062;-33
2024/01/21 09:26:41;;;;;;;11.75;10.82;;;2.80;99.90;;;;;;4986674;28;20046;-32
2024/01/21 09:29:07;;;;;;;10.45;9.65;;;2.80;99.90;;;;;;5000051;28;20042;-32
2024/01/21 09:31:34;;;;;;;11.20;10.30;;;2.90;99.90;;;;;;5001338;28;20046;-32
2024/01/21 09:33:59;;;;;;;10.38;9.38;;;2.90;99.90;;;;;;4996898;28;20056;-33
2024/01/21 09:36:25;;;;;;;10.27;9.27;;;3.00;99.90;;;;;;4986127;28;20058;-33
2024/01/21 09:38:51;;;;;;;10.18;9.07;;;3.00;99.90;;;;;;4981924;28;20062;-32
2024/01/21 09:41:25;;;;;;;10.00;9.10;;;3.00;99.90;;;;;;4989902;28;20061;-33
2024/01/21 09:43:50;;;;;;;10.07;8.98;;;3.00;99.90;;;;;;5005660;28;22888;-33
2024/01/21 09:46:16;;;;;;;9.98;9.07;;;3.00;99.90;;;;;;5005936;28;20408;-33
2024/01/21 09:48:43;;;;;;;9.75;8.90;;;3.00;99.90;;;;;;5002362;28;20061;-33
2024/01/21 09:51:09;;;;;;;9.57;8.68;;;3.10;99.90;;;;;;4990126;28;20053;-32
2024/01/21 09:53:35;;;;;;;8.80;7.93;;;3.00;99.90;;;;;;5005747;28;20042;-33
2024/01/21 09:56:08;;;;;;;8.45;7.47;;;3.10;99.90;;;;;;5011151;28;20083;-33
2024/01/21 09:58:35;;;;;;;;;;;3.10;99.90;;;;;;4990030;28;20494;-32
2024/01/21 10:01:01;;;;;;;8.45;7.03;;;3.10;99.90;;;;;;5004521;28;20008;-32
2024/01/21 10:03:27;;;;;;;9.27;8.48;;;3.10;99.90;;;;;;5003333;28;20107;-33
2024/01/21 10:05:53;;;;;;;9.88;8.88;;;3.10;99.90;;;;;;5005721;28;20061;-33
2024/01/21 10:08:18;;;;;;;10.35;8.43;;;3.10;99.90;;;;;;5003884;28;20058;-32
2024/01/21 10:10:44;;;;;;;9.05;7.75;;;3.20;99.90;;;;;;5006423;28;20132;-32
2024/01/21 10:13:10;;;;;;;8.77;7.88;;;3.20;99.90;;;;;;4996277;28;20058;-32
2024/01/21 10:15:36;;;;;;;8.90;8.05;;;3.20;99.90;;;;;;4998096;28;20054;-32
2024/01/21 10:18:01;;;;;;;9.00;7.82;;;3.20;99.90;;;;;;5005244;28;20065;-32
2024/01/21 10:20:28;;;;;;;9.38;7.93;;;3.30;99.90;;;;;;4994886;28;20047;-32
2024/01/21 10:23:11;;;;;;;8.80;7.78;;;3.30;99.90;;;;;;5003469;28;20443;-37
2024/01/21 10:25:40;;;;;;;11.35;10.35;;;3.30;99.90;;;;;;4995168;28;20073;-32
2024/01/21 10:28:06;;;;;;;9.80;8.65;;;3.30;99.90;;;;;;5009528;28;20507;-32
2024/01/21 10:30:32;;;;;;;8.43;7.63;;;3.30;99.90;;;;;;5010899;28;20077;-32
2024/01/21 10:32:59;;;;;;;10.52;7.32;;;3.30;99.90;;;;;;5005920;28;20184;-32
2024/01/21 10:35:24;;;;;;;8.00;7.18;;;3.30;99.90;;;;;;5007752;28;20134;-34
2024/01/21 10:37:50;;;;;;;8.07;6.22;;;3.30;99.90;;;;;;5004366;28;20495;-34
2024/01/21 10:40:17;;;;;;;9.05;7.47;;;3.40;99.90;;;;;;4973418;28;20056;-33
2024/01/21 10:42:43;;;;;;;9.38;7.20;;;3.40;99.90;;;;;;5008104;28;20056;-34
2024/01/21 10:45:10;;;;;;;7.90;5.75;;;3.40;99.90;;;;;;5007890;28;20133;-34
2024/01/21 10:47:37;;;;;;;7.05;5.68;;;3.40;99.90;;;;;;4987357;28;20111;-33
2024/01/21 10:50:06;;;;;;;7.18;5.53;;;3.50;99.90;;;;;;5003084;28;20065;-33
2024/01/21 10:52:32;;;;;;;7.03;5.32;;;3.50;99.90;;;;;;5008602;28;20054;-33
2024/01/21 10:54:59;;;;;;;7.30;5.15;;;3.50;99.90;;;;;;5000335;28;20046;-42
2024/01/21 10:57:25;;;;;;;7.43;5.13;;;3.50;99.90;;;;;;4984450;28;20064;-40
2024/01/21 10:59:51;;;;;;;10.80;4.75;;;3.50;99.90;;;;;;5001705;28;20050;-42
2024/01/21 11:02:16;;;;;;;7.90;4.70;;;3.50;99.90;;;;;;4997439;28;20058;-43
2024/01/21 11:04:42;;;;;;;7.47;4.78;;;3.50;99.90;;;;;;5006551;28;20503;-42
2024/01/21 11:07:11;;;;;;;8.00;4.78;;;3.50;99.90;;;;;;5002521;28;20041;-41
2024/01/21 11:09:39;;;;;;;8.57;4.45;;;3.50;99.90;;;;;;5009745;28;20061;-42
2024/01/21 11:12:05;;;;;;;9.30;4.30;;;3.50;99.90;;;;;;5001963;28;20433;-43
2024/01/21 11:14:38;;;;;;;6.57;4.50;;;3.50;99.90;;;;;;5005858;28;20049;-43
2024/01/21 11:17:10;;;;;;;7.13;4.65;;;3.50;99.90;;;;;;5007381;28;20461;-40
2024/01/21 11:19:47;;;;;;;7.15;4.63;;;3.50;99.90;;;;;;4985674;28;20058;-43
2024/01/21 11:22:14;;;;;;;7.13;4.65;;;3.50;99.90;;;;;;5007562;28;20068;-41
2024/01/21 11:24:41;;;;;;;5.70;4.25;;;3.50;99.90;;;;;;5008831;28;20423;-43
2024/01/21 11:27:22;;;;;;;7.20;4.82;;;3.50;99.90;;;;;;5008072;28;20046;-42
2024/01/21 11:29:50;;;;;;;8.60;5.43;;;3.50;99.90;;;;;;5006861;28;20057;-43
2024/01/21 11:32:30;;;;;;;7.75;4.60;;;3.50;99.90;;;;;;5003571;28;20132;-41
2024/01/21 11:35:05;;;;;;;7.75;4.63;;;3.40;99.90;;;;;;5007080;28;20057;-42
2024/01/21 11:37:31;;;;;;;8.70;5.80;;;3.40;99.90;;;;;;5001634;28;20065;-40
2024/01/21 11:40:01;;;;;;;9.13;5.57;;;3.50;99.90;;;;;;5001333;28;20136;-43
2024/01/21 11:42:26;;;;;;;8.27;5.85;;;3.50;99.90;;;;;;4984622;28;20545;-42
2024/01/21 11:45:04;;;;;;;7.40;5.30;;;3.50;99.90;;;;;;4991399;28;21145;-42
2024/01/21 11:47:30;;;;;;;9.15;5.43;;;3.50;99.90;;;;;;5001924;28;20064;-43
2024/01/21 11:49:58;;;;;;;9.70;5.63;;;3.50;99.90;;;;;;5005453;28;20058;-42
2024/01/21 11:52:23;;;;;;;7.22;5.30;;;3.50;99.90;;;;;;5002412;28;20528;-43
2024/01/21 11:54:49;;;;;;;8.65;4.95;;;3.60;99.90;;;;;;5003106;28;20286;-33
2024/01/21 11:57:15;;;;;;;7.22;5.32;;;3.60;99.90;;;;;;5006926;28;20473;-33
2024/01/21 11:59:41;;;;;;;9.68;5.80;;;3.60;99.90;;;;;;4997786;28;20046;-33
2024/01/21 12:02:10;;;;;;;8.77;5.40;;;3.60;99.90;;;;;;4982773;28;20105;-34
2024/01/21 12:04:39;;;;;;;7.85;5.40;;;3.60;99.90;;;;;;4987554;28;20054;-33
2024/01/21 12:07:05;;;;;;;9.93;5.72;;;3.70;99.90;;;;;;5004201;28;20641;-33
2024/01/21 12:09:31;;;;;;;8.48;5.13;;;3.70;99.90;;;;;;5000711;28;20057;-34
2024/01/21 12:11:58;;;;;;;9.18;5.50;;;3.70;99.90;;;;;;5004033;28;20104;-33
2024/01/21 12:14:25;;;;;;;10.07;5.15;;;3.80;99.90;;;;;;4985583;28;21843;-34
2024/01/21 12:16:53;;;;;;;8.63;5.90;;;3.80;99.90;;;;;;5000847;28;20056;-33
2024/01/21 12:19:18;;;;;;;9.40;4.55;;;3.80;99.90;;;;;;5000794;28;20057;-34
2024/01/21 12:21:44;;;;;;;7.70;5.28;;;3.90;99.90;;;;;;5001205;28;20095;-34
2024/01/21 12:24:10;;;;;;;9.02;4.93;;;3.90;99.90;;;;;;5006706;28;20057;-33
2024/01/21 12:26:36;;;;;;;8.85;5.22;;;3.90;99.90;;;;;;5002218;28;20068;-33
2024/01/21 12:29:09;;;;;;;8.05;5.15;;;3.90;99.90;;;;;;5002265;28;20080;-33
2024/01/21 12:31:37;;;;;;;8.73;5.70;;;4.00;99.90;;;;;;5005578;28;20137;-34
2024/01/21 12:34:05;;;;;;;9.52;5.90;;;4.00;99.90;;;;;;4999954;28;20046;-33
2024/01/21 12:36:33;;;;;;;10.20;5.45;;;4.00;99.90;;;;;;5003226;28;20058;-34
2024/01/21 12:38:59;;;;;;;8.02;5.47;;;4.00;99.90;;;;;;5000971;28;20053;-35
2024/01/21 12:41:25;;;;;;;12.02;6.88;;;4.10;99.90;;;;;;5004944;28;20058;-36
2024/01/21 12:43:51;;;;;;;7.72;5.22;;;4.10;99.90;;;;;;5006262;28;20049;-35
2024/01/21 12:46:21;;;;;;;9.65;5.35;;;4.10;99.90;;;;;;5004135;28;20050;-35